Plummers Mill, Kentucky
Current Conditions -  °F | °C
As of 10:30 AM on Monday 22 Dec 2014 (Local Time) from KSYM Reporting Station
Overcast Overcast  
Wind Chill: 39°   Ceiling: 3000
Heat Index: 43°   Visibility: 10mi
Dew Point: 34°   Wind: 6mph
Humidity: 70%   Direction: NA
Pressure: 30.04"   Gusts: NA
Location:  38.3186°N, 83.5612°W
Report Text: KSYM 221530Z AUTO VRB05KT 10SM BKN030 OVC035 06/01 A3004 RMK AO2
Loading
Personal Weather Stations






























Interactive Weather Map New forecast layout! Learn more

10-Day Weather Forecast

Advertisements
Track Severe Weather on mobile